KMDW

Chicago Midway International Airport

Chicago, Illinois, USA
KMDW 141747Z 1418/1524 24004KT P6SM SCT050 SCT250 FM150100 VRB03KT P6SM SCT040 BKN250 FM150900 21004KT P6SM VCSH SCT040 BKN250 FM151400 17010KT 6SM SHRA BKN040 PROB30 1515/1521 4SM -TSRA OVC025CB FM152100 15007KT P6SM -SHRA BKN040
Issued Valid From Valid To
Aug-14 @ 17:47 UTC
(2 hours ago)
Aug-14 @ 18:00 UTC
(2 hours ago)
Aug-16 @ 00:00 UTC
(-1 days ago)
Aug-14 @ 18:00 to Aug-15 @ 01:00
KMDW 141747Z 1418/1524 24004KT P6SM SCT050 SCT250
Wind Visibility Clouds
240° at 4 knots Greater than 6 miles
  • Scattered at 5,000' AGL
  • Scattered at 25,000' AGL
From Aug-15 @ 01:00 to Aug-15 @ 09:00
FM150100 VRB03KT P6SM SCT040 BKN250
Wind Visibility Clouds
Variable at 3 knots Greater than 6 miles
  • Scattered at 4,000' AGL
  • Broken at 25,000' AGL
From Aug-15 @ 09:00 to Aug-15 @ 14:00
FM150900 21004KT P6SM VCSH SCT040 BKN250
Wind Visibility Clouds
210° at 4 knots Greater than 6 miles
  • Scattered at 4,000' AGL
  • Broken at 25,000' AGL
From Aug-15 @ 14:00 to Aug-15 @ 21:00
FM151400 17010KT 6SM SHRA BKN040
Wind Visibility Clouds Conditions
170° at 10 knots 6 miles
  • Broken at 4,000' AGL
  • Rain
Probable  (Probability 30%) Aug-15 @ 15:00 to Aug-15 @ 21:00
PROB30 1515/1521 4SM -TSRA OVC025CB
Visibility Clouds Conditions
4 miles
  • Overcast at 2,500' AGL
  • Light Thunderstorm
  • Light Rain
From Aug-15 @ 21:00 to Aug-16 @ 00:00
FM152100 15007KT P6SM -SHRA BKN040
Wind Visibility Clouds Conditions
150° at 7 knots Greater than 6 miles
  • Broken at 4,000' AGL
  • Light Rain
KMDW 141747Z 1418/1524 24004KT P6SM SCT050 SCT250 FM150100 VRB03KT P6SM SCT040 BKN250 FM150900 21004KT P6SM VCSH SCT040 BKN250 FM151400 17010KT 6SM SHRA BKN040 PROB30 1515/1521 4SM -TSRA OVC025CB FM152100 15007KT P6SM -SHRA BKN040
Issued Aug-14 @ 17:47 UTC
(2 hours ago)
Valid From Aug-14 @ 18:00 UTC
(2 hours ago)
Valid To Aug-16 @ 00:00 UTC
(-1 days ago)
Aug-14 @ 18:00 - Aug-15 @ 01:00
Wind Visibility
240° at 4 knots Greater than 6 miles
Clouds
  • Scattered at 5,000' AGL
  • Scattered at 25,000' AGL
From Aug-15 @ 01:00 - Aug-15 @ 09:00
Wind Visibility
Variable at 3 knots Greater than 6 miles
Clouds
  • Scattered at 4,000' AGL
  • Broken at 25,000' AGL
From Aug-15 @ 09:00 - Aug-15 @ 14:00
Wind Visibility
210° at 4 knots Greater than 6 miles
Clouds
  • Scattered at 4,000' AGL
  • Broken at 25,000' AGL
From Aug-15 @ 14:00 - Aug-15 @ 21:00
Wind Visibility
170° at 10 knots 6 miles
Clouds
  • Broken at 4,000' AGL
Conditions
  • Rain
Probability 30% Probable Aug-15 @ 15:00 - Aug-15 @ 21:00
Clouds
  • Overcast at 2,500' AGL
Conditions
  • Light Thunderstorm
  • Light Rain
From Aug-15 @ 21:00 - Aug-16 @ 00:00
Wind Visibility
150° at 7 knots Greater than 6 miles
Clouds
  • Broken at 4,000' AGL
Conditions
  • Light Rain